createdAt,value
2022-08-17T00:01:51.532Z,44.73
2022-08-17T00:04:23.499Z,44.76
2022-08-17T00:06:53.881Z,45.21
2022-08-17T00:09:26.239Z,45.29
2022-08-17T00:12:42.681Z,45.26
2022-08-17T00:14:47.731Z,45.38
2022-08-17T00:17:17.517Z,45.50
2022-08-17T00:19:48.218Z,45.84
2022-08-17T00:22:33.776Z,45.98
2022-08-17T00:25:10.270Z,45.79
2022-08-17T00:27:40.725Z,46.15
2022-08-17T00:30:12.102Z,45.84
2022-08-17T00:33:14.482Z,45.38
2022-08-17T00:35:36.304Z,45.55
2022-08-17T00:38:10.676Z,46.28
2022-08-17T00:40:48.976Z,45.74
2022-08-17T00:43:37.439Z,46.08
2022-08-17T00:46:14.939Z,46.93
2022-08-17T00:48:44.513Z,45.88
2022-08-17T00:51:30.428Z,46.48
2022-08-17T00:54:03.893Z,46.73
2022-08-17T00:56:38.986Z,48.14
2022-08-17T00:59:10.616Z,47.30
2022-08-17T01:01:41.783Z,47.97
2022-08-17T01:04:11.599Z,47.42
2022-08-17T01:06:42.954Z,46.73
2022-08-17T01:09:11.614Z,46.37
2022-08-17T01:11:44.079Z,46.57
2022-08-17T01:14:13.782Z,46.67
2022-08-17T01:16:41.900Z,47.07
2022-08-17T01:19:22.903Z,46.38
2022-08-17T01:22:11.437Z,47.73
2022-08-17T01:25:01.200Z,49.05
2022-08-17T01:27:30.229Z,49.34
2022-08-17T01:30:01.791Z,49.55
2022-08-17T01:32:30.610Z,49.82
2022-08-17T01:35:00.759Z,49.70
2022-08-17T01:37:37.209Z,50.14
2022-08-17T01:40:22.676Z,49.43
2022-08-17T01:42:57.695Z,50.63
2022-08-17T01:45:30.479Z,51.02
2022-08-17T01:47:58.671Z,50.92
2022-08-17T01:50:29.929Z,50.47
2022-08-17T01:53:05.268Z,50.01
2022-08-17T01:55:41.810Z,50.24
2022-08-17T01:58:10.264Z,49.54
2022-08-17T02:01:00.140Z,50.84
2022-08-17T02:03:30.121Z,50.00
2022-08-17T02:05:58.016Z,50.21
2022-08-17T02:08:38.761Z,51.35
2022-08-17T02:11:17.050Z,49.90
2022-08-17T02:13:46.869Z,51.36
2022-08-17T02:16:19.064Z,51.61
2022-08-17T02:18:48.886Z,50.20
2022-08-17T02:21:20.777Z,49.59
2022-08-17T02:23:53.797Z,50.97
2022-08-17T02:26:25.607Z,50.89
2022-08-17T02:28:56.396Z,51.07
2022-08-17T02:31:27.036Z,50.31
2022-08-17T02:34:04.055Z,51.98
2022-08-17T02:36:37.803Z,53.31
2022-08-17T02:39:12.863Z,53.12
2022-08-17T02:41:45.110Z,53.48
2022-08-17T02:44:13.370Z,53.12
2022-08-17T02:47:02.152Z,52.58
2022-08-17T02:49:30.985Z,51.45
2022-08-17T02:51:58.844Z,51.35
2022-08-17T02:54:39.196Z,50.69
2022-08-17T02:57:08.779Z,50.33
2022-08-17T02:59:38.039Z,51.31
2022-08-17T03:02:11.694Z,50.53
2022-08-17T03:04:40.504Z,51.78
2022-08-17T03:07:08.545Z,50.70
2022-08-17T03:09:36.268Z,50.35
2022-08-17T03:12:10.917Z,50.36
2022-08-17T03:14:41.685Z,51.63
2022-08-17T03:17:11.352Z,51.00
2022-08-17T03:19:45.361Z,52.33
2022-08-17T03:22:36.209Z,53.28
2022-08-17T03:25:01.858Z,53.10
2022-08-17T03:27:31.043Z,54.18
2022-08-17T03:29:59.025Z,54.85
2022-08-17T03:32:27.473Z,54.11
2022-08-17T03:35:00.580Z,53.67
2022-08-17T03:37:29.003Z,54.60
2022-08-17T03:39:57.895Z,54.70
2022-08-17T03:42:32.302Z,53.90
2022-08-17T03:45:03.372Z,54.15
2022-08-17T03:47:50.042Z,54.25
2022-08-17T03:50:40.021Z,54.27
2022-08-17T03:53:29.962Z,54.43
2022-08-17T03:56:20.596Z,53.47
2022-08-17T03:58:48.969Z,54.14
2022-08-17T04:01:18.209Z,53.39
2022-08-17T04:03:46.671Z,53.81
2022-08-17T04:06:15.296Z,54.23
2022-08-17T04:08:42.979Z,54.75
2022-08-17T04:11:12.432Z,54.71
2022-08-17T04:13:40.328Z,54.29
2022-08-17T04:16:08.143Z,54.91
2022-08-17T04:18:36.196Z,54.68
2022-08-17T04:21:03.858Z,54.56
2022-08-17T04:23:34.070Z,54.36
2022-08-17T04:26:04.094Z,53.77
2022-08-17T04:28:31.716Z,54.15
2022-08-17T04:31:01.241Z,54.72
2022-08-17T04:33:30.512Z,54.09
2022-08-17T04:36:03.054Z,54.51
2022-08-17T04:38:35.435Z,54.32
2022-08-17T04:41:23.377Z,55.07
2022-08-17T04:43:55.994Z,54.63
2022-08-17T04:46:34.155Z,54.68
2022-08-17T04:49:08.953Z,54.73
2022-08-17T04:51:56.772Z,54.67
2022-08-17T04:54:30.120Z,53.14
2022-08-17T04:56:58.380Z,53.87
2022-08-17T04:59:26.832Z,53.98
2022-08-17T05:01:55.107Z,54.22
2022-08-17T05:04:34.506Z,53.90
2022-08-17T05:07:04.727Z,54.05
2022-08-17T05:09:32.606Z,53.79
2022-08-17T05:12:02.393Z,53.13
2022-08-17T05:14:32.753Z,52.66
2022-08-17T05:17:07.282Z,52.24
2022-08-17T05:19:39.994Z,52.25
2022-08-17T05:22:07.768Z,52.56
2022-08-17T05:24:40.753Z,52.39
2022-08-17T05:27:16.761Z,52.74
2022-08-17T05:29:47.731Z,51.09
2022-08-17T05:32:38.550Z,51.23
2022-08-17T05:35:08.525Z,51.32
2022-08-17T05:37:37.115Z,51.72
2022-08-17T05:40:06.523Z,51.62
2022-08-17T05:42:34.938Z,51.75
2022-08-17T05:45:05.015Z,51.50
2022-08-17T05:47:51.506Z,51.05
2022-08-17T05:50:29.933Z,51.03
2022-08-17T06:00:53.188Z,49.41
2022-08-17T06:03:34.904Z,48.93
2022-08-17T06:06:31.589Z,48.16
2022-08-17T06:09:33.033Z,47.72
2022-08-17T06:12:26.665Z,47.07
2022-08-17T06:15:02.080Z,46.73
2022-08-17T06:17:30.516Z,46.00
2022-08-17T06:20:11.930Z,45.69
2022-08-17T06:23:04.693Z,45.20
2022-08-17T06:25:40.185Z,44.94
2022-08-17T06:28:13.962Z,44.50
2022-08-17T06:30:59.352Z,44.57
2022-08-17T06:33:36.937Z,44.13
2022-08-17T06:36:29.407Z,43.48
2022-08-17T06:39:33.408Z,43.18
2022-08-17T06:42:55.124Z,42.80
2022-08-17T06:45:11.537Z,42.60
2022-08-17T06:48:01.406Z,42.68
2022-08-17T06:50:49.734Z,41.66
2022-08-17T06:53:26.545Z,41.15
2022-08-17T06:56:09.750Z,40.93
2022-08-17T06:58:41.031Z,40.63
2022-08-17T07:01:23.540Z,40.23
2022-08-17T07:03:58.017Z,40.24
2022-08-17T07:06:51.100Z,39.68
2022-08-17T07:09:28.932Z,39.64
2022-08-17T07:12:10.218Z,39.68
2022-08-17T07:14:39.160Z,39.37
2022-08-17T07:17:11.117Z,39.04
2022-08-17T07:19:42.528Z,39.29
2022-08-17T07:22:30.776Z,39.04
2022-08-17T07:25:20.900Z,38.65
2022-08-17T07:27:59.860Z,37.95
2022-08-17T07:30:50.922Z,37.50
2022-08-17T07:33:23.898Z,37.25
2022-08-17T07:35:54.361Z,37.01
2022-08-17T07:38:31.445Z,36.95
2022-08-17T07:41:03.802Z,36.98
2022-08-17T07:43:41.977Z,36.29
2022-08-17T07:46:54.953Z,35.73
2022-08-17T07:49:46.576Z,35.43
2022-08-17T07:52:47.924Z,34.35
2022-08-17T07:55:30.478Z,34.51
2022-08-17T07:58:00.751Z,33.89
2022-08-17T08:00:32.317Z,33.15
2022-08-17T08:03:28.459Z,33.19
2022-08-17T08:06:02.570Z,32.98
2022-08-17T08:08:42.468Z,33.16
2022-08-17T08:11:15.788Z,32.61
2022-08-17T08:13:50.407Z,32.46
2022-08-17T08:16:30.444Z,31.99
2022-08-17T08:19:02.394Z,31.74
2022-08-17T08:21:59.160Z,31.33
2022-08-17T08:24:59.323Z,30.78
2022-08-17T08:27:56.834Z,30.47
2022-08-17T08:30:28.392Z,30.68
2022-08-17T08:33:12.722Z,30.25
2022-08-17T08:37:15.818Z,29.91
2022-08-17T08:39:20.115Z,29.49
2022-08-17T08:42:01.691Z,29.37
2022-08-17T08:45:00.783Z,29.26
2022-08-17T08:47:44.599Z,28.86
2022-08-17T08:50:37.599Z,28.50
2022-08-17T08:53:21.376Z,28.48
2022-08-17T08:56:10.847Z,28.25
2022-08-17T08:58:43.866Z,26.92
2022-08-17T09:01:57.956Z,26.09
2022-08-17T09:05:20.602Z,25.29
2022-08-17T09:08:11.547Z,26.30
2022-08-17T09:11:05.741Z,25.93
2022-08-17T09:13:45.748Z,24.67
2022-08-17T09:16:29.992Z,24.82
2022-08-17T09:19:05.113Z,24.94
2022-08-17T09:21:55.592Z,24.97
2022-08-17T09:24:44.470Z,24.68
2022-08-17T09:27:53.317Z,24.79
2022-08-17T09:30:21.982Z,25.80
2022-08-17T09:33:07.894Z,25.38
2022-08-17T09:35:44.359Z,24.68
2022-08-17T09:38:32.688Z,24.48
2022-08-17T09:41:13.484Z,24.38
2022-08-17T09:43:50.127Z,23.49
2022-08-17T09:46:29.900Z,22.84
2022-08-17T09:49:11.135Z,22.04
2022-08-17T09:51:48.247Z,22.20
2022-08-17T09:54:42.016Z,22.03
2022-08-17T09:57:50.658Z,22.25
2022-08-17T10:00:25.372Z,21.94
2022-08-17T10:03:16.478Z,21.72
2022-08-17T10:06:21.784Z,21.91
2022-08-17T10:09:06.937Z,21.80
2022-08-17T10:12:20.676Z,22.95
2022-08-17T10:15:08.150Z,23.28
2022-08-17T10:17:59.597Z,23.11
2022-08-17T10:20:37.225Z,22.05
2022-08-17T10:23:34.693Z,21.97
2022-08-17T10:26:15.153Z,21.99
2022-08-17T10:28:50.633Z,21.96
2022-08-17T10:31:36.272Z,22.62
2022-08-17T10:34:38.862Z,22.74
2022-08-17T10:37:53.666Z,22.33
2022-08-17T10:40:32.773Z,21.71
2022-08-17T10:43:11.376Z,21.54
2022-08-17T10:46:29.876Z,21.08
2022-08-17T10:49:26.017Z,21.00
2022-08-17T10:51:59.183Z,20.60
2022-08-17T10:54:49.129Z,20.37
2022-08-17T10:57:34.641Z,19.48
2022-08-17T11:00:18.283Z,19.64
2022-08-17T11:02:51.933Z,20.02
2022-08-17T11:05:54.300Z,20.23
2022-08-17T11:08:47.662Z,19.87
2022-08-17T11:11:35.103Z,19.54
2022-08-17T11:14:24.118Z,20.52
2022-08-17T11:17:08.226Z,20.87
2022-08-17T11:19:55.195Z,20.70
2022-08-17T11:23:02.078Z,20.84
2022-08-17T11:25:34.029Z,21.16
2022-08-17T11:28:25.151Z,20.70
2022-08-17T11:31:07.778Z,20.68
2022-08-17T11:33:45.080Z,20.66
2022-08-17T11:36:22.366Z,20.96
2022-08-17T11:39:13.741Z,20.96
2022-08-17T11:41:49.082Z,20.81
2022-08-17T11:44:38.046Z,20.72
2022-08-17T11:47:34.574Z,20.20
2022-08-17T11:50:50.266Z,19.84
2022-08-17T11:53:37.336Z,20.12
2022-08-17T11:56:10.602Z,19.68
2022-08-17T11:58:39.978Z,19.72
2022-08-17T12:01:26.944Z,19.68
2022-08-17T12:04:25.983Z,19.43
2022-08-17T12:07:05.835Z,19.22
2022-08-17T12:09:40.690Z,19.08
2022-08-17T12:12:33.352Z,18.51
2022-08-17T12:15:10.516Z,18.47
2022-08-17T12:17:43.025Z,18.05
2022-08-17T12:20:18.870Z,18.00
2022-08-17T12:22:53.838Z,17.81
2022-08-17T12:25:41.552Z,17.70
2022-08-17T12:28:26.971Z,17.44
2022-08-17T12:31:00.487Z,17.25
2022-08-17T12:33:29.635Z,16.92
2022-08-17T12:36:05.952Z,17.36
2022-08-17T12:38:38.237Z,17.17
2022-08-17T12:41:34.297Z,17.09
2022-08-17T12:44:27.353Z,17.07
2022-08-17T12:47:22.186Z,17.94
2022-08-17T12:49:53.195Z,17.34
2022-08-17T12:52:28.202Z,17.31
2022-08-17T12:55:07.190Z,17.44
2022-08-17T12:57:44.169Z,17.06
2022-08-17T13:00:38.288Z,17.30
2022-08-17T13:03:13.671Z,17.17
2022-08-17T13:06:06.339Z,16.73
2022-08-17T13:08:38.726Z,16.73
2022-08-17T13:11:16.322Z,16.69
2022-08-17T13:13:47.796Z,16.74
2022-08-17T13:16:35.738Z,16.19
2022-08-17T13:19:17.028Z,16.38
2022-08-17T13:21:57.396Z,16.53
2022-08-17T13:24:28.017Z,16.14
2022-08-17T13:27:01.903Z,15.53
2022-08-17T13:29:51.409Z,15.26
2022-08-17T13:32:43.616Z,15.31
2022-08-17T13:35:39.386Z,15.53
2022-08-17T13:38:12.412Z,15.36
2022-08-17T13:40:50.597Z,15.13
2022-08-17T13:43:50.758Z,14.48
2022-08-17T13:46:52.502Z,15.43
2022-08-17T13:49:54.157Z,15.58
2022-08-17T13:52:57.351Z,15.09
2022-08-17T13:56:37.263Z,14.86
2022-08-17T13:59:53.552Z,15.30
2022-08-17T14:02:27.519Z,14.90
2022-08-17T14:05:14.606Z,15.18
2022-08-17T14:07:42.827Z,14.95
2022-08-17T14:10:17.598Z,14.89
2022-08-17T14:12:46.402Z,15.06
2022-08-17T14:15:20.928Z,14.97
2022-08-17T14:17:57.865Z,15.40
2022-08-17T14:20:29.879Z,15.44
2022-08-17T14:22:58.436Z,15.20
2022-08-17T14:25:29.670Z,15.15
2022-08-17T14:27:57.779Z,15.43
2022-08-17T14:30:29.791Z,15.23
2022-08-17T14:33:16.768Z,14.94
2022-08-17T14:35:53.632Z,14.92
2022-08-17T14:38:21.971Z,15.02
2022-08-17T14:40:51.019Z,14.59
2022-08-17T14:43:20.598Z,14.34
2022-08-17T14:45:48.760Z,14.55
2022-08-17T14:48:18.217Z,15.05
2022-08-17T14:50:46.415Z,15.28
2022-08-17T14:53:16.259Z,15.03
2022-08-17T14:55:46.907Z,15.00
2022-08-17T14:58:16.037Z,14.90
2022-08-17T15:00:45.316Z,14.89
2022-08-17T15:03:14.636Z,14.85
2022-08-17T15:05:44.286Z,14.58
2022-08-17T15:08:13.009Z,14.67
2022-08-17T15:10:41.220Z,14.45
2022-08-17T15:13:17.966Z,15.34
2022-08-17T15:15:46.502Z,14.90
2022-08-17T15:18:14.236Z,14.82
2022-08-17T15:20:43.161Z,14.81
2022-08-17T15:23:16.373Z,14.94
2022-08-17T15:25:44.539Z,15.26
2022-08-17T15:28:12.699Z,15.41
2022-08-17T15:30:44.930Z,15.45
2022-08-17T15:33:29.522Z,15.42
2022-08-17T15:35:59.929Z,15.52
2022-08-17T15:38:28.976Z,15.42
2022-08-17T15:40:58.793Z,15.59
2022-08-17T15:43:32.617Z,15.70
2022-08-17T15:46:03.605Z,15.34
2022-08-17T15:48:42.580Z,15.68
2022-08-17T15:51:10.501Z,15.91
2022-08-17T15:53:38.671Z,15.64
2022-08-17T15:56:07.081Z,15.64
2022-08-17T15:58:36.036Z,15.54
2022-08-17T16:01:15.136Z,15.53
2022-08-17T16:04:04.869Z,15.46
2022-08-17T16:06:35.372Z,15.29
2022-08-17T16:09:03.945Z,15.28
2022-08-17T16:11:31.899Z,15.23
2022-08-17T16:13:59.751Z,15.44
2022-08-17T16:16:31.504Z,15.53
2022-08-17T16:18:59.422Z,15.64
2022-08-17T16:21:27.577Z,15.38
2022-08-17T16:23:59.271Z,15.46
2022-08-17T16:26:29.135Z,15.49
2022-08-17T16:28:59.073Z,15.91
2022-08-17T16:31:27.284Z,15.74
2022-08-17T16:33:58.442Z,15.96
2022-08-17T16:36:54.608Z,15.95
2022-08-17T16:39:29.431Z,15.95
2022-08-17T16:41:58.337Z,16.00
2022-08-17T16:44:31.033Z,16.28
2022-08-17T16:47:01.173Z,16.45
2022-08-17T16:49:37.234Z,16.39
2022-08-17T16:52:10.709Z,16.29
2022-08-17T16:54:43.951Z,16.27
2022-08-17T16:57:13.968Z,16.53
2022-08-17T16:59:44.893Z,16.45
2022-08-17T17:02:27.013Z,16.37
2022-08-17T17:05:09.625Z,16.43
2022-08-17T17:08:03.540Z,16.59
2022-08-17T17:10:37.582Z,16.61
2022-08-17T17:13:11.916Z,16.59
2022-08-17T17:15:47.641Z,16.63
2022-08-17T17:18:16.855Z,16.69
2022-08-17T17:20:56.658Z,16.95
2022-08-17T17:23:35.464Z,17.17
2022-08-17T17:26:14.527Z,17.46
2022-08-17T17:28:56.289Z,17.54
2022-08-17T17:31:25.882Z,17.68
2022-08-17T17:33:57.178Z,18.20
2022-08-17T17:36:41.371Z,18.12
2022-08-17T17:39:20.518Z,18.13
2022-08-17T17:42:00.795Z,18.35
2022-08-17T17:44:33.609Z,18.93
2022-08-17T17:47:02.635Z,19.11
2022-08-17T17:49:35.965Z,19.54
2022-08-17T17:52:16.938Z,20.07
2022-08-17T17:55:24.536Z,20.40
2022-08-17T17:58:01.210Z,21.19
2022-08-17T18:00:58.239Z,21.16
2022-08-17T18:03:33.092Z,21.73
2022-08-17T18:06:15.040Z,22.02
2022-08-17T18:08:58.729Z,22.24
2022-08-17T18:11:54.655Z,22.25
2022-08-17T18:14:33.314Z,22.36
2022-08-17T18:17:02.299Z,22.24
2022-08-17T18:19:31.958Z,22.52
2022-08-17T18:22:20.636Z,23.27
2022-08-17T18:24:56.227Z,23.44
2022-08-17T18:27:34.156Z,23.93
2022-08-17T18:30:24.401Z,23.49
2022-08-17T18:32:52.551Z,23.03
2022-08-17T18:35:22.299Z,22.94
2022-08-17T18:37:52.988Z,22.78
2022-08-17T18:40:33.435Z,22.78
2022-08-17T18:43:08.326Z,22.89
2022-08-17T18:45:48.447Z,23.97
2022-08-17T18:48:23.784Z,24.26
2022-08-17T18:50:54.549Z,24.52
2022-08-17T18:53:40.804Z,24.55
2022-08-17T18:56:28.222Z,24.67
2022-08-17T18:59:28.907Z,25.04
2022-08-17T19:01:59.154Z,25.39
2022-08-17T19:04:35.576Z,25.79
2022-08-17T19:07:25.125Z,25.37
2022-08-17T19:10:13.987Z,25.17
2022-08-17T19:12:47.953Z,25.01
2022-08-17T19:15:19.605Z,25.12
2022-08-17T19:17:53.413Z,26.12
2022-08-17T19:20:37.695Z,26.87
2022-08-17T19:23:12.604Z,26.95
2022-08-17T19:25:48.318Z,27.12
2022-08-17T19:28:29.358Z,27.31
2022-08-17T19:30:59.713Z,27.73
2022-08-17T19:33:28.322Z,28.17
2022-08-17T19:36:06.794Z,27.82
2022-08-17T19:38:41.559Z,28.67
2022-08-17T19:41:18.903Z,28.71
2022-08-17T19:43:57.105Z,29.40
2022-08-17T19:46:29.471Z,28.98
2022-08-17T19:49:04.056Z,29.47
2022-08-17T19:51:50.835Z,29.63
2022-08-17T19:54:38.424Z,29.97
2022-08-17T19:57:18.711Z,29.74
2022-08-17T19:59:52.795Z,30.19
2022-08-17T20:02:32.429Z,30.30
2022-08-17T20:05:08.147Z,29.86
2022-08-17T20:07:47.837Z,30.05
2022-08-17T20:10:27.387Z,30.20
2022-08-17T20:12:58.337Z,31.14
2022-08-17T20:15:32.417Z,32.10
2022-08-17T20:18:03.433Z,32.04
2022-08-17T20:21:10.780Z,31.75
2022-08-17T20:24:21.618Z,31.72
2022-08-17T20:26:59.445Z,31.48
2022-08-17T20:29:39.677Z,32.85
2022-08-17T20:32:23.570Z,32.83
2022-08-17T20:35:04.349Z,32.84
2022-08-17T20:37:35.027Z,32.30
2022-08-17T20:40:09.625Z,32.45
2022-08-17T20:42:39.991Z,32.01
2022-08-17T20:45:26.420Z,32.57
2022-08-17T20:48:30.596Z,33.05
2022-08-17T20:50:56.809Z,32.33
2022-08-17T20:53:46.765Z,33.42
2022-08-17T20:56:43.203Z,32.57
2022-08-17T20:59:34.448Z,32.09
2022-08-17T21:02:20.761Z,31.88
2022-08-17T21:04:54.513Z,32.33
2022-08-17T21:07:32.877Z,32.86
2022-08-17T21:10:16.815Z,33.25
2022-08-17T21:12:48.125Z,33.88
2022-08-17T21:15:38.189Z,33.30
2022-08-17T21:18:12.034Z,33.25
2022-08-17T21:20:43.408Z,34.01
2022-08-17T21:23:24.735Z,33.75
2022-08-17T21:26:12.823Z,33.16
2022-08-17T21:29:01.117Z,32.89
2022-08-17T21:31:37.254Z,32.75
2022-08-17T21:34:25.987Z,33.15
2022-08-17T21:36:57.067Z,32.89
2022-08-17T21:39:33.899Z,33.46
2022-08-17T21:42:02.411Z,33.54
2022-08-17T21:44:49.256Z,34.02
2022-08-17T21:47:24.755Z,33.94
2022-08-17T21:49:54.329Z,34.04
2022-08-17T21:52:24.080Z,33.94
2022-08-17T21:54:58.500Z,33.63
2022-08-17T21:57:41.473Z,33.68
2022-08-17T22:00:28.058Z,34.20
2022-08-17T22:03:04.741Z,34.37
2022-08-17T22:05:38.198Z,34.09
2022-08-17T22:08:16.499Z,33.99
2022-08-17T22:10:49.636Z,34.55
2022-08-17T22:13:29.790Z,34.20
2022-08-17T22:16:28.599Z,34.49
2022-08-17T22:19:00.579Z,34.23
2022-08-17T22:21:30.710Z,35.17
2022-08-17T22:24:05.557Z,34.65
2022-08-17T22:27:00.678Z,35.15
2022-08-17T22:30:00.354Z,35.09
2022-08-17T22:32:43.852Z,35.03
2022-08-17T22:35:30.235Z,35.18
2022-08-17T22:38:41.425Z,34.31
2022-08-17T22:41:42.740Z,35.81
2022-08-17T22:44:22.749Z,35.08
2022-08-17T22:47:07.276Z,35.89
2022-08-17T22:50:01.096Z,35.94
2022-08-17T22:53:02.221Z,35.87
2022-08-17T22:55:53.218Z,35.53
2022-08-17T22:58:43.636Z,35.17
2022-08-17T23:01:33.012Z,35.25
2022-08-17T23:04:10.332Z,36.39
2022-08-17T23:06:44.406Z,35.83
2022-08-17T23:09:14.700Z,35.78
2022-08-17T23:11:50.045Z,35.72
2022-08-17T23:14:22.203Z,35.85
2022-08-17T23:16:53.516Z,36.41
2022-08-17T23:19:23.191Z,35.85
2022-08-17T23:21:53.111Z,36.93
2022-08-17T23:24:25.733Z,37.80
2022-08-17T23:26:54.772Z,38.00
2022-08-17T23:29:25.191Z,38.23
2022-08-17T23:31:55.234Z,37.64
2022-08-17T23:34:28.753Z,38.49
2022-08-17T23:37:05.018Z,38.05
2022-08-17T23:39:36.724Z,39.65
2022-08-17T23:42:09.739Z,41.01
2022-08-17T23:44:40.690Z,40.61
2022-08-17T23:47:10.099Z,39.70
2022-08-17T23:49:41.087Z,39.72
2022-08-17T23:52:15.256Z,39.42
2022-08-17T23:54:47.945Z,39.70
2022-08-17T23:57:20.492Z,39.40
